Time;durP1;ratioP1;P1;durP2;ratioP2;P2;SDS_P1;SDS_P2;PMS_P1;PMS_P2;Temp;Humidity;BMP_temperature;BMP_pressure;BME280_temperature;BME280_humidity;BME280_pressure;Samples;Min_cycle;Max_cycle;Signal;HPM_P1;HPM_P2
2023/07/09 00:02:16;;;;;;;13.27;5.43;;;18.40;24.70;;;;;;5068547;27;45823;-70
2023/07/09 00:04:42;;;;;;;15.23;6.30;;;18.40;24.90;;;;;;5076069;27;46597;-70
2023/07/09 00:07:33;;;;;;;12.20;5.87;;;18.40;25.00;;;;;;5074168;28;46352;-70
2023/07/09 00:10:00;;;;;;;15.63;7.23;;;18.40;25.40;;;;;;5067062;28;45849;-70
2023/07/09 00:12:26;;;;;;;15.30;6.10;;;18.30;25.00;;;;;;5090488;27;46391;-71
2023/07/09 00:14:51;;;;;;;17.37;6.23;;;18.30;25.10;;;;;;5072423;28;46617;-70
2023/07/09 00:17:30;;;;;;;11.73;5.50;;;18.40;24.30;;;;;;5068013;28;46654;-70
2023/07/09 00:19:56;;;;;;;11.47;5.60;;;18.40;25.40;;;;;;5071867;28;46470;-72
2023/07/09 00:22:22;;;;;;;14.30;5.10;;;18.40;25.00;;;;;;5073193;27;46493;-71
2023/07/09 00:24:50;;;;;;;13.07;5.80;;;18.20;25.10;;;;;;5074822;27;46806;-70
2023/07/09 00:27:18;;;;;;;11.37;5.90;;;17.90;25.10;;;;;;5072121;27;46459;-71
2023/07/09 00:29:44;;;;;;;10.90;5.90;;;17.90;26.00;;;;;;5073009;28;46774;-72
2023/07/09 00:32:20;;;;;;;15.40;6.70;;;17.90;26.30;;;;;;5073765;28;45834;-70
2023/07/09 00:34:48;;;;;;;14.70;5.83;;;17.90;26.50;;;;;;5071850;27;46324;-70
2023/07/09 00:37:16;;;;;;;16.63;6.23;;;17.90;25.50;;;;;;5073178;28;46446;-70
2023/07/09 00:39:42;;;;;;;14.73;6.07;;;17.90;26.30;;;;;;5071839;27;46716;-71
2023/07/09 00:42:17;;;;;;;13.97;6.10;;;17.90;26.30;;;;;;5076255;28;46670;-71
2023/07/09 00:44:49;;;;;;;13.83;6.70;;;17.90;26.40;;;;;;5073653;28;46261;-70
2023/07/09 00:47:24;;;;;;;14.20;6.80;;;18.00;26.30;;;;;;5075469;27;46163;-71
2023/07/09 00:49:59;;;;;;;12.70;5.97;;;17.90;26.40;;;;;;5074745;28;46671;-71
2023/07/09 00:52:35;;;;;;;12.30;5.03;;;17.90;26.30;;;;;;5075519;28;46343;-71
2023/07/09 00:55:07;;;;;;;16.13;5.60;;;17.90;26.50;;;;;;5071965;28;46485;-71
2023/07/09 00:57:37;;;;;;;13.17;6.37;;;17.90;26.50;;;;;;5074723;27;46542;-70
2023/07/09 01:00:09;;;;;;;23.43;6.60;;;17.80;26.60;;;;;;5075639;28;46313;-70
2023/07/09 01:02:36;;;;;;;14.20;5.13;;;17.70;26.90;;;;;;5075236;27;46631;-71
2023/07/09 01:05:03;;;;;;;11.80;6.20;;;17.60;26.90;;;;;;5077385;27;46588;-71
2023/07/09 01:07:29;;;;;;;13.90;6.57;;;17.50;27.10;;;;;;5072563;28;47919;-71
2023/07/09 01:09:55;;;;;;;11.13;5.70;;;17.50;27.40;;;;;;5077720;28;46700;-70
2023/07/09 01:12:22;;;;;;;19.97;6.33;;;17.40;27.40;;;;;;5075768;28;46415;-71
2023/07/09 01:14:51;;;;;;;16.33;6.70;;;17.40;27.50;;;;;;5075016;27;46602;-71
2023/07/09 01:17:17;;;;;;;12.80;6.90;;;17.50;26.60;;;;;;5072633;28;46386;-71
2023/07/09 01:19:48;;;;;;;15.53;6.93;;;17.50;27.40;;;;;;5080001;28;46407;-71
2023/07/09 01:22:18;;;;;;;22.87;7.37;;;17.60;27.40;;;;;;5075893;28;47251;-71
2023/07/09 01:24:49;;;;;;;12.17;6.50;;;17.60;27.50;;;;;;5073709;28;46682;-69
2023/07/09 01:27:18;;;;;;;11.30;5.90;;;17.60;26.60;;;;;;5077471;28;46347;-71
2023/07/09 01:29:48;;;;;;;11.43;6.30;;;17.60;27.40;;;;;;5079416;28;46399;-70
2023/07/09 01:32:18;;;;;;;11.10;5.30;;;17.60;27.40;;;;;;5072552;28;46436;-71
2023/07/09 01:34:50;;;;;;;11.87;6.20;;;17.60;27.60;;;;;;5080104;27;46533;-70
2023/07/09 01:37:19;;;;;;;8.80;5.50;;;17.50;27.60;;;;;;5072862;27;47024;-71
2023/07/09 01:39:44;;;;;;;13.23;5.90;;;17.50;27.70;;;;;;5073702;27;46580;-71
2023/07/09 01:42:10;;;;;;;14.50;5.53;;;17.40;27.80;;;;;;5080186;28;46152;-71
2023/07/09 01:44:38;;;;;;;13.50;6.07;;;17.40;27.80;;;;;;5077232;28;46474;-72
2023/07/09 01:47:04;;;;;;;21.00;6.40;;;17.40;27.90;;;;;;5081220;28;47299;-70
2023/07/09 01:49:32;;;;;;;17.20;6.00;;;17.30;27.90;;;;;;5071364;27;46461;-71
2023/07/09 01:52:00;;;;;;;11.80;6.27;;;17.30;28.00;;;;;;5077465;28;46284;-70
2023/07/09 01:54:31;;;;;;;10.63;5.77;;;17.20;28.10;;;;;;5083749;28;46404;-71
2023/07/09 01:57:14;;;;;;;13.40;6.43;;;17.20;28.20;;;;;;5080416;27;46601;-72
2023/07/09 01:59:41;;;;;;;11.90;6.07;;;17.10;28.50;;;;;;5078387;28;46674;-70
2023/07/09 02:02:15;;;;;;;13.70;5.77;;;17.10;28.40;;;;;;5077246;27;45817;-71
2023/07/09 02:04:42;;;;;;;15.20;6.37;;;17.00;28.30;;;;;;5077636;28;46438;-72
2023/07/09 02:07:08;;;;;;;16.40;6.33;;;17.10;28.40;;;;;;5078418;27;47232;-70
2023/07/09 02:09:33;;;;;;;11.03;5.83;;;17.00;28.40;;;;;;5071203;28;45812;-71
2023/07/09 02:11:59;;;;;;;12.10;6.10;;;17.00;29.20;;;;;;5077339;28;46530;-72
2023/07/09 02:14:25;;;;;;;12.80;6.20;;;17.00;28.40;;;;;;5076681;28;46456;-71
2023/07/09 02:16:50;;;;;;;12.70;5.47;;;17.00;28.60;;;;;;5071485;28;47503;-71
2023/07/09 02:19:16;;;;;;;14.43;5.50;;;17.00;28.60;;;;;;5079056;28;46564;-70
2023/07/09 02:21:41;;;;;;;14.33;4.70;;;16.90;28.60;;;;;;5075311;28;46434;-71
2023/07/09 02:24:07;;;;;;;18.10;5.83;;;16.90;28.70;;;;;;5074895;28;46510;-71
2023/07/09 02:26:33;;;;;;;12.57;5.90;;;16.90;28.60;;;;;;5078813;27;46438;-70
2023/07/09 02:28:58;;;;;;;11.57;6.13;;;16.90;28.70;;;;;;5075517;28;46419;-72
2023/07/09 02:31:24;;;;;;;20.20;5.83;;;16.90;28.60;;;;;;5072898;28;45858;-70
2023/07/09 02:33:50;;;;;;;16.10;7.07;;;16.90;28.70;;;;;;5072245;28;46438;-71
2023/07/09 02:36:16;;;;;;;10.37;5.50;;;16.90;28.80;;;;;;5070753;28;47155;-72
2023/07/09 02:38:42;;;;;;;14.13;6.10;;;16.80;28.80;;;;;;5081833;28;46670;-71
2023/07/09 02:41:07;;;;;;;16.07;5.67;;;16.80;28.90;;;;;;5071145;28;46462;-72
2023/07/09 02:43:33;;;;;;;12.10;5.17;;;16.80;28.90;;;;;;5077636;28;45861;-70
2023/07/09 02:45:58;;;;;;;11.40;6.00;;;16.80;29.00;;;;;;5073626;28;47397;-70
2023/07/09 02:48:24;;;;;;;13.77;5.67;;;16.70;29.00;;;;;;5076745;27;46399;-71
2023/07/09 02:50:49;;;;;;;17.17;5.20;;;16.70;29.10;;;;;;5078113;28;46406;-71
2023/07/09 02:53:15;;;;;;;15.40;6.60;;;16.70;29.20;;;;;;5070326;28;46458;-71
2023/07/09 02:55:41;;;;;;;12.83;5.90;;;16.70;29.10;;;;;;5077222;28;46275;-70
2023/07/09 02:58:06;;;;;;;13.27;5.87;;;16.70;29.20;;;;;;5067986;27;46127;-71
2023/07/09 03:00:32;;;;;;;9.60;6.10;;;16.70;29.30;;;;;;5071316;28;46511;-72
2023/07/09 03:02:57;;;;;;;13.13;6.37;;;16.60;29.20;;;;;;5082232;28;46438;-71
2023/07/09 03:05:23;;;;;;;12.90;5.73;;;16.70;29.20;;;;;;5071177;28;47162;-71
2023/07/09 03:07:48;;;;;;;11.97;5.73;;;16.70;29.20;;;;;;5079016;28;46383;-72
2023/07/09 03:10:14;;;;;;;15.20;5.30;;;16.80;29.30;;;;;;5075930;28;46433;-71
2023/07/09 03:12:40;;;;;;;17.43;6.13;;;16.80;29.40;;;;;;5072690;28;46337;-71
2023/07/09 03:15:06;;;;;;;14.07;5.67;;;16.80;29.30;;;;;;5070320;28;46905;-72
2023/07/09 03:17:31;;;;;;;16.57;6.30;;;16.90;29.40;;;;;;5074439;28;46399;-71
2023/07/09 03:19:57;;;;;;;13.03;5.77;;;16.90;29.40;;;;;;5073509;28;45795;-72
2023/07/09 03:22:22;;;;;;;16.30;6.07;;;16.80;29.40;;;;;;5079489;28;46763;-71
2023/07/09 03:24:48;;;;;;;15.00;6.30;;;16.80;29.40;;;;;;5074223;28;46480;-72
2023/07/09 03:27:13;;;;;;;11.30;5.13;;;16.90;29.60;;;;;;5073401;28;46423;-71
2023/07/09 03:29:39;;;;;;;12.63;6.00;;;16.80;29.50;;;;;;5073492;27;46296;-71
2023/07/09 03:32:05;;;;;;;9.70;5.33;;;16.90;29.50;;;;;;5070497;28;46373;-70
2023/07/09 03:34:31;;;;;;;10.87;4.93;;;16.90;29.40;;;;;;5076357;28;46375;-71
2023/07/09 03:36:56;;;;;;;12.20;6.20;;;16.90;29.40;;;;;;5075461;27;46371;-71
2023/07/09 03:39:22;;;;;;;14.17;5.07;;;16.90;29.30;;;;;;5073057;28;46610;-71
2023/07/09 03:41:47;;;;;;;13.23;4.70;;;16.90;29.40;;;;;;5078454;28;46403;-70
2023/07/09 03:44:13;;;;;;;11.97;5.70;;;16.90;29.30;;;;;;5070890;28;46398;-72
2023/07/09 03:46:39;;;;;;;11.63;5.50;;;16.90;29.30;;;;;;5078839;27;46337;-70
2023/07/09 03:49:04;;;;;;;11.97;5.63;;;16.90;29.30;;;;;;5077623;28;46553;-70
2023/07/09 03:51:30;;;;;;;9.27;5.03;;;16.90;29.20;;;;;;5075915;28;46482;-71
2023/07/09 03:53:55;;;;;;;19.40;4.80;;;16.90;29.10;;;;;;5073004;28;46498;-71
2023/07/09 03:56:21;;;;;;;11.03;5.13;;;16.90;29.00;;;;;;5070857;28;46478;-70
2023/07/09 03:58:47;;;;;;;18.67;5.57;;;17.00;28.90;;;;;;5077149;28;46511;-71
2023/07/09 04:01:12;;;;;;;14.33;5.93;;;17.00;28.70;;;;;;5078832;28;46481;-71
2023/07/09 04:03:38;;;;;;;14.97;6.07;;;17.10;28.60;;;;;;5080939;27;47130;-73
2023/07/09 04:06:03;;;;;;;13.70;5.50;;;17.10;28.60;;;;;;5066984;28;46317;-72
2023/07/09 04:08:29;;;;;;;11.00;5.97;;;17.10;28.50;;;;;;5071727;28;46377;-71
2023/07/09 04:10:58;;;;;;;11.73;5.10;;;17.20;29.60;;;;;;5076349;28;45869;-71
2023/07/09 04:13:24;;;;;;;14.00;6.10;;;17.20;28.40;;;;;;5071344;28;46406;-70
2023/07/09 04:15:50;;;;;;;15.13;5.13;;;17.30;28.30;;;;;;5068131;28;46688;-72
2023/07/09 04:18:15;;;;;;;8.70;4.97;;;17.30;28.20;;;;;;5070058;28;46372;-70
2023/07/09 04:20:41;;;;;;;12.93;6.00;;;17.40;28.10;;;;;;5079205;28;46010;-71
2023/07/09 04:23:07;;;;;;;14.83;5.10;;;17.50;27.90;;;;;;5066190;28;46579;-70
2023/07/09 04:25:33;;;;;;;12.80;4.90;;;17.60;27.70;;;;;;5072118;28;46421;-71
2023/07/09 04:27:59;;;;;;;15.20;5.53;;;17.70;27.40;;;;;;5065736;28;46683;-71
2023/07/09 04:30:25;;;;;;;11.40;5.80;;;17.80;27.30;;;;;;5072400;28;46628;-72
2023/07/09 04:32:50;;;;;;;14.87;5.60;;;17.90;27.20;;;;;;5076777;27;46275;-71
2023/07/09 04:35:16;;;;;;;13.77;5.10;;;18.00;27.20;;;;;;5075544;28;46474;-70
2023/07/09 04:37:42;;;;;;;12.53;5.87;;;18.10;26.90;;;;;;5070802;28;46327;-72
2023/07/09 04:40:12;;;;;;;12.80;5.57;;;18.20;26.80;;;;;;5073979;28;46586;-70
2023/07/09 04:42:39;;;;;;;10.47;5.70;;;18.30;26.80;;;;;;5074238;27;46576;-71
2023/07/09 04:45:06;;;;;;;15.20;5.13;;;18.40;26.80;;;;;;5078269;27;46570;-71
2023/07/09 04:47:32;;;;;;;12.40;5.37;;;18.50;26.50;;;;;;5065269;28;46537;-71
2023/07/09 04:49:57;;;;;;;15.27;5.37;;;18.80;26.10;;;;;;5067359;28;46649;-72
2023/07/09 04:52:23;;;;;;;11.70;5.77;;;20.00;25.20;;;;;;5073581;27;46459;-71
2023/07/09 04:54:50;;;;;;;9.37;4.73;;;21.50;23.50;;;;;;5075264;28;45870;-71
2023/07/09 04:57:16;;;;;;;12.33;5.27;;;22.90;20.80;;;;;;5073068;28;46512;-71
2023/07/09 04:59:42;;;;;;;13.23;5.00;;;24.30;18.40;;;;;;5070663;28;46461;-72
2023/07/09 05:02:08;;;;;;;12.23;3.97;;;25.50;16.10;;;;;;5073085;28;47542;-71
2023/07/09 05:04:33;;;;;;;10.60;5.00;;;26.10;14.80;;;;;;5075410;28;46324;-71
2023/07/09 05:06:59;;;;;;;13.73;5.33;;;26.50;13.60;;;;;;5074795;28;46684;-71
2023/07/09 05:09:25;;;;;;;9.53;4.20;;;27.30;12.20;;;;;;5074471;27;46547;-72
2023/07/09 05:11:51;;;;;;;12.77;4.87;;;28.10;10.40;;;;;;5063808;27;46307;-70
2023/07/09 05:14:17;;;;;;;8.77;4.57;;;29.00;9.50;;;;;;5065458;28;46387;-71
2023/07/09 05:16:45;;;;;;;10.93;4.73;;;29.70;6.80;;;;;;5078181;28;46441;-71
2023/07/09 05:19:11;;;;;;;11.47;5.00;;;30.30;5.80;;;;;;5068861;28;46763;-71
2023/07/09 05:21:36;;;;;;;13.20;4.73;;;30.80;4.50;;;;;;5075448;28;47057;-70
2023/07/09 05:24:03;;;;;;;10.30;5.10;;;31.40;3.10;;;;;;5070027;28;46073;-70
2023/07/09 05:26:29;;;;;;;8.10;4.03;;;31.70;2.30;;;;;;5069982;28;46422;-70
2023/07/09 05:28:56;;;;;;;9.33;4.90;;;31.90;1.90;;;;;;5076683;28;46238;-70
2023/07/09 05:31:22;;;;;;;8.10;4.60;;;31.80;1.60;;;;;;5069603;27;46545;-71
2023/07/09 05:33:47;;;;;;;8.67;4.27;;;32.00;1.00;;;;;;5072255;28;46395;-71
2023/07/09 05:36:15;;;;;;;8.60;4.60;;;32.50;1.00;;;;;;5070557;28;46371;-71
2023/07/09 05:38:43;;;;;;;6.67;3.97;;;32.70;1.00;;;;;;5067069;28;46409;-71
2023/07/09 05:41:08;;;;;;;9.23;4.27;;;32.90;1.00;;;;;;5070729;27;46343;-71
2023/07/09 05:43:34;;;;;;;7.50;4.30;;;33.40;1.00;;;;;;5071820;28;46573;-70
2023/07/09 05:46:02;;;;;;;9.43;4.90;;;33.60;1.00;;;;;;5075603;28;46304;-70
2023/07/09 05:48:28;;;;;;;8.70;3.63;;;33.80;1.00;;;;;;5078492;27;46791;-69
2023/07/09 05:50:57;;;;;;;9.70;4.30;;;33.90;1.00;;;;;;5077561;28;46394;-69
2023/07/09 05:53:23;;;;;;;8.80;4.07;;;34.00;1.00;;;;;;5071306;27;45885;-71
2023/07/09 05:55:52;;;;;;;9.83;4.80;;;34.30;1.00;;;;;;5075769;28;46344;-70
2023/07/09 05:58:17;;;;;;;7.30;3.63;;;34.30;1.00;;;;;;5074092;28;46489;-71
2023/07/09 06:00:43;;;;;;;7.03;3.77;;;32.90;1.00;;;;;;5075810;27;46692;-71
2023/07/09 06:03:09;;;;;;;6.33;3.80;;;31.50;1.00;;;;;;5075365;28;46445;-71
2023/07/09 06:05:35;;;;;;;10.10;3.70;;;30.60;1.80;;;;;;5072808;28;45756;-70
2023/07/09 06:08:01;;;;;;;9.93;3.83;;;29.90;3.10;;;;;;5068689;28;46517;-70
2023/07/09 06:10:26;;;;;;;8.40;3.90;;;29.30;4.20;;;;;;5068450;27;46088;-70
2023/07/09 06:12:52;;;;;;;9.70;4.10;;;28.90;5.50;;;;;;5071609;28;46432;-69
2023/07/09 06:15:18;;;;;;;7.07;4.10;;;28.70;5.40;;;;;;5072711;27;46265;-69
2023/07/09 06:17:44;;;;;;;10.87;4.20;;;28.50;5.30;;;;;;5076208;27;46326;-70
2023/07/09 06:20:10;;;;;;;10.77;3.87;;;28.30;5.80;;;;;;5077307;28;46472;-69
2023/07/09 06:22:36;;;;;;;7.07;3.80;;;28.20;6.20;;;;;;5076017;28;46493;-70
2023/07/09 06:25:02;;;;;;;7.27;4.23;;;28.10;5.90;;;;;;5071200;28;46620;-69
2023/07/09 06:27:27;;;;;;;7.80;4.20;;;28.00;6.10;;;;;;5071511;28;46448;-69
2023/07/09 06:29:53;;;;;;;11.73;4.53;;;28.10;5.70;;;;;;5073833;27;46490;-70
2023/07/09 06:32:19;;;;;;;9.67;3.83;;;28.20;5.50;;;;;;5075680;28;46672;-69
2023/07/09 06:34:44;;;;;;;9.10;3.40;;;28.20;5.20;;;;;;5071948;28;46669;-70
2023/07/09 06:37:12;;;;;;;6.93;4.00;;;28.30;5.20;;;;;;5069711;28;46669;-70
2023/07/09 06:39:38;;;;;;;6.37;3.93;;;28.40;5.30;;;;;;5075216;28;47266;-69
2023/07/09 06:42:04;;;;;;;7.87;3.90;;;28.40;5.30;;;;;;5075487;28;46561;-69
2023/07/09 06:44:30;;;;;;;8.57;3.87;;;28.40;5.30;;;;;;5078180;27;46470;-69
2023/07/09 06:46:55;;;;;;;10.17;4.27;;;28.40;5.30;;;;;;5072678;28;46987;-68
2023/07/09 06:49:21;;;;;;;8.33;4.53;;;28.60;5.40;;;;;;5067966;28;46512;-69
2023/07/09 06:51:46;;;;;;;6.97;4.13;;;28.60;5.40;;;;;;5075370;28;46509;-69
2023/07/09 06:54:15;;;;;;;8.00;3.83;;;28.60;5.40;;;;;;5076711;28;46427;-69
2023/07/09 06:56:41;;;;;;;11.30;4.57;;;28.80;5.50;;;;;;5058986;28;46380;-71
2023/07/09 06:59:06;;;;;;;6.43;3.33;;;29.00;5.60;;;;;;5086996;27;46348;-70
2023/07/09 07:01:32;;;;;;;11.67;4.53;;;29.00;5.00;;;;;;5074579;28;46353;-69
2023/07/09 07:03:58;;;;;;;7.37;3.87;;;29.10;4.80;;;;;;5077467;28;46320;-71
2023/07/09 07:06:23;;;;;;;7.67;4.33;;;29.20;4.70;;;;;;5075762;28;46421;-69
2023/07/09 07:08:49;;;;;;;10.83;4.00;;;29.30;4.40;;;;;;5071400;28;47595;-70
2023/07/09 07:11:15;;;;;;;10.00;4.60;;;29.30;4.00;;;;;;5075527;27;46370;-71
2023/07/09 07:13:41;;;;;;;5.90;3.93;;;29.30;3.90;;;;;;5074876;28;46362;-69
2023/07/09 07:16:09;;;;;;;8.63;4.20;;;29.30;3.60;;;;;;5074317;27;46371;-69
2023/07/09 07:18:35;;;;;;;8.20;4.20;;;29.30;3.50;;;;;;5074443;28;46368;-68
2023/07/09 07:21:02;;;;;;;9.27;4.10;;;29.50;3.30;;;;;;5073529;28;46376;-70
2023/07/09 07:23:28;;;;;;;7.00;4.10;;;29.60;2.80;;;;;;5074446;28;46333;-69
2023/07/09 07:25:54;;;;;;;7.03;4.00;;;29.80;2.20;;;;;;5069984;27;45864;-70
2023/07/09 07:28:20;;;;;;;10.90;4.00;;;29.80;1.70;;;;;;5072532;27;46529;-71
2023/07/09 07:30:46;;;;;;;10.07;3.93;;;29.80;1.60;;;;;;5072872;28;46523;-70
2023/07/09 07:33:14;;;;;;;10.60;4.40;;;29.90;1.80;;;;;;5071253;28;46616;-70
2023/07/09 07:35:39;;;;;;;7.07;3.80;;;29.90;1.70;;;;;;5070570;28;46722;-71
2023/07/09 07:38:05;;;;;;;6.93;3.87;;;29.80;1.50;;;;;;5076193;28;46425;-69
2023/07/09 07:40:30;;;;;;;6.67;3.00;;;29.80;1.40;;;;;;5075986;28;45885;-69
2023/07/09 07:42:56;;;;;;;8.40;3.80;;;29.90;1.00;;;;;;5074554;28;46414;-70
2023/07/09 07:45:22;;;;;;;7.10;3.47;;;30.00;1.00;;;;;;5070297;28;46777;-70
2023/07/09 07:47:47;;;;;;;6.90;3.30;;;30.10;1.00;;;;;;5062879;28;46410;-70
2023/07/09 07:50:14;;;;;;;7.90;3.40;;;30.20;1.00;;;;;;5067773;28;46410;-72
2023/07/09 07:52:39;;;;;;;8.90;4.00;;;30.20;1.00;;;;;;5069139;28;46173;-69
2023/07/09 07:55:06;;;;;;;6.87;3.60;;;30.20;1.00;;;;;;5068849;28;46653;-69
2023/07/09 07:57:32;;;;;;;5.63;3.37;;;30.20;1.00;;;;;;5069108;27;46322;-71
2023/07/09 07:59:58;;;;;;;7.73;3.40;;;30.40;1.00;;;;;;5068982;28;46502;-68
2023/07/09 08:02:24;;;;;;;7.70;3.33;;;30.40;1.00;;;;;;5065913;28;46468;-70
2023/07/09 08:04:50;;;;;;;6.27;3.67;;;30.40;1.00;;;;;;5070868;27;46463;-69
2023/07/09 08:07:18;;;;;;;9.87;3.53;;;30.60;1.00;;;;;;5065507;27;47068;-70
2023/07/09 08:09:44;;;;;;;7.70;3.23;;;30.80;1.00;;;;;;5069423;28;46373;-71
2023/07/09 08:12:12;;;;;;;5.83;2.90;;;30.90;1.00;;;;;;5068233;28;46410;-71
2023/07/09 08:14:39;;;;;;;9.07;3.23;;;30.90;1.00;;;;;;5069392;27;46523;-70
2023/07/09 08:17:05;;;;;;;8.43;3.10;;;31.00;1.00;;;;;;5065292;27;47795;-71
2023/07/09 08:19:31;;;;;;;5.93;2.93;;;31.10;1.00;;;;;;5066437;27;46440;-70
2023/07/09 08:21:58;;;;;;;5.73;3.23;;;31.20;1.00;;;;;;5067978;28;46405;-69
2023/07/09 08:24:23;;;;;;;8.70;3.27;;;31.30;1.00;;;;;;5067859;28;46418;-69
2023/07/09 08:26:49;;;;;;;7.00;2.90;;;31.40;1.00;;;;;;5068056;27;47118;-68
2023/07/09 08:29:15;;;;;;;4.60;2.80;;;31.50;1.00;;;;;;5068030;28;46478;-70
2023/07/09 08:31:41;;;;;;;7.00;3.10;;;31.50;1.00;;;;;;5081715;22;46547;-70
2023/07/09 08:34:08;;;;;;;5.90;3.23;;;31.60;1.00;;;;;;5079642;27;46629;-68
2023/07/09 08:36:33;;;;;;;5.50;2.93;;;31.70;1.00;;;;;;5081067;27;46688;-69
2023/07/09 08:39:01;;;;;;;7.60;3.53;;;31.70;1.00;;;;;;5082526;27;46460;-69
2023/07/09 08:41:30;;;;;;;7.53;2.77;;;31.70;1.00;;;;;;5086612;27;46440;-69
2023/07/09 08:44:10;;;;;;;8.27;2.60;;;31.70;1.00;;;;;;5084800;27;46502;-69
2023/07/09 08:47:02;;;;;;;6.27;3.00;;;31.70;1.00;;;;;;5082134;27;46985;-69
2023/07/09 08:49:53;;;;;;;5.37;2.80;;;31.70;1.00;;;;;;5072259;27;46497;-70
2023/07/09 08:52:25;;;;;;;5.77;2.90;;;31.90;1.00;;;;;;5074971;27;46410;-68
2023/07/09 08:54:53;;;;;;;10.63;3.27;;;31.90;1.00;;;;;;5080617;27;46388;-69
2023/07/09 08:57:21;;;;;;;9.20;3.03;;;31.80;1.00;;;;;;5080039;27;46651;-69
2023/07/09 08:59:48;;;;;;;9.07;3.30;;;31.70;1.00;;;;;;5084286;27;46427;-68
2023/07/09 09:02:35;;;;;;;10.17;3.07;;;31.90;1.00;;;;;;5082229;27;46445;-68
2023/07/09 09:05:03;;;;;;;5.03;2.73;;;32.00;1.00;;;;;;5082795;27;46532;-71
2023/07/09 09:07:36;;;;;;;6.87;2.73;;;32.00;1.00;;;;;;5081577;27;48154;-68
2023/07/09 09:10:04;;;;;;;5.80;3.00;;;32.10;1.00;;;;;;5084975;27;46727;-68
2023/07/09 09:12:38;;;;;;;11.00;3.00;;;32.00;1.00;;;;;;5078760;27;46248;-68
2023/07/09 09:15:09;;;;;;;7.10;3.20;;;32.10;1.00;;;;;;5081190;27;46826;-70
2023/07/09 09:17:38;;;;;;;6.00;2.87;;;32.10;1.00;;;;;;5081947;27;47121;-71
2023/07/09 09:20:13;;;;;;;8.17;3.10;;;32.10;1.00;;;;;;5079498;27;46415;-70
2023/07/09 09:22:47;;;;;;;5.33;2.50;;;32.10;1.00;;;;;;5082136;27;46394;-69
2023/07/09 09:25:29;;;;;;;6.70;3.30;;;32.20;1.00;;;;;;5083933;27;46512;-69
2023/07/09 09:27:54;;;;;;;6.50;3.63;;;32.30;1.00;;;;;;5083639;27;47236;-70
2023/07/09 09:30:23;;;;;;;9.00;3.10;;;32.30;1.00;;;;;;5084056;27;46474;-70
2023/07/09 09:32:57;;;;;;;7.40;3.30;;;32.10;1.00;;;;;;5078790;27;46774;-69
2023/07/09 09:35:31;;;;;;;8.97;3.30;;;32.30;1.00;;;;;;5086378;27;46412;-68
2023/07/09 09:37:58;;;;;;;5.57;3.30;;;32.30;1.00;;;;;;5086225;27;46434;-71
2023/07/09 09:40:25;;;;;;;7.83;2.93;;;32.40;1.00;;;;;;5086739;27;46431;-71
2023/07/09 09:42:54;;;;;;;6.67;2.70;;;32.50;1.00;;;;;;5082440;27;46426;-69
2023/07/09 09:45:24;;;;;;;7.00;3.27;;;32.50;1.00;;;;;;5084483;27;46391;-69
2023/07/09 09:47:50;;;;;;;5.67;2.97;;;32.40;1.00;;;;;;5087231;27;46702;-69
2023/07/09 09:50:17;;;;;;;6.87;2.67;;;32.50;1.00;;;;;;5084631;27;46379;-70
2023/07/09 09:52:44;;;;;;;6.17;3.37;;;32.50;1.00;;;;;;5085904;27;46669;-70
2023/07/09 09:55:19;;;;;;;6.67;3.17;;;32.50;1.00;;;;;;5080710;27;45938;-70
2023/07/09 09:57:52;;;;;;;7.40;3.17;;;32.00;1.00;;;;;;5085577;27;46705;-68
2023/07/09 10:00:22;;;;;;;6.53;2.80;;;31.80;1.00;;;;;;5072655;27;47053;-71
2023/07/09 10:02:48;;;;;;;7.20;3.00;;;31.60;1.00;;;;;;5082783;27;46562;-71
2023/07/09 10:05:15;;;;;;;6.40;3.47;;;31.70;1.00;;;;;;5081842;27;46827;-68
2023/07/09 10:07:56;;;;;;;4.60;2.73;;;31.70;1.00;;;;;;5080523;27;46705;-70
2023/07/09 10:10:27;;;;;;;6.73;2.83;;;31.90;1.00;;;;;;5081101;27;46478;-71
2023/07/09 10:13:00;;;;;;;6.77;3.50;;;32.10;1.00;;;;;;5081422;27;46431;-69
2023/07/09 10:15:39;;;;;;;12.77;3.07;;;32.40;1.00;;;;;;5082210;27;46461;-70
2023/07/09 10:18:32;;;;;;;6.60;3.10;;;32.20;1.00;;;;;;5080963;27;46480;-70
2023/07/09 10:21:14;;;;;;;7.20;3.57;;;32.40;1.00;;;;;;5080718;27;46543;-70
2023/07/09 10:24:05;;;;;;;6.67;2.97;;;32.50;1.00;;;;;;5081794;27;46660;-71
2023/07/09 10:26:38;;;;;;;7.87;3.07;;;32.50;1.00;;;;;;5084268;27;45853;-69
2023/07/09 10:29:18;;;;;;;7.97;2.97;;;32.70;1.00;;;;;;5082187;27;46450;-71
2023/07/09 10:31:55;;;;;;;6.40;2.83;;;32.50;1.00;;;;;;5080467;27;46415;-69
2023/07/09 10:34:36;;;;;;;9.93;3.10;;;32.30;1.00;;;;;;5080753;27;46366;-70
2023/07/09 10:37:37;;;;;;;6.17;3.10;;;32.20;1.00;;;;;;5081075;27;47548;-72
2023/07/09 10:40:08;;;;;;;8.63;3.37;;;32.40;1.00;;;;;;5078746;27;46514;-70
2023/07/09 10:42:54;;;;;;;6.20;3.10;;;32.60;1.00;;;;;;5079735;27;46522;-69
2023/07/09 10:45:29;;;;;;;6.80;3.53;;;32.60;1.00;;;;;;5084417;27;46414;-71
2023/07/09 10:48:14;;;;;;;7.53;3.00;;;32.50;1.00;;;;;;5079494;27;46436;-70
2023/07/09 10:50:51;;;;;;;6.43;3.07;;;32.50;1.00;;;;;;5083406;27;46451;-70
2023/07/09 10:53:31;;;;;;;8.40;3.17;;;32.50;1.00;;;;;;5084482;27;46672;-68
2023/07/09 10:56:08;;;;;;;7.00;3.20;;;32.50;1.00;;;;;;5082727;27;47051;-71
2023/07/09 10:58:52;;;;;;;7.73;3.20;;;32.60;1.00;;;;;;5083533;27;47158;-70
2023/07/09 11:01:27;;;;;;;9.80;2.80;;;32.60;1.00;;;;;;5084101;27;46438;-68
2023/07/09 11:04:03;;;;;;;7.07;2.93;;;32.70;1.00;;;;;;5085533;27;46410;-69
2023/07/09 11:06:41;;;;;;;6.80;3.00;;;32.70;1.00;;;;;;5081134;27;46423;-69
2023/07/09 11:09:22;;;;;;;10.60;3.10;;;32.50;1.00;;;;;;5081461;27;46470;-68
2023/07/09 11:11:53;;;;;;;7.63;3.80;;;32.40;1.00;;;;;;5080275;27;46371;-72
2023/07/09 11:14:33;;;;;;;7.90;3.17;;;32.50;1.00;;;;;;5082894;27;46425;-68
2023/07/09 11:17:00;;;;;;;8.60;3.40;;;32.60;1.00;;;;;;5082063;27;46541;-68
2023/07/09 11:19:27;;;;;;;6.30;3.40;;;32.90;1.00;;;;;;5082420;27;46429;-70
2023/07/09 11:22:17;;;;;;;9.90;2.90;;;33.10;1.00;;;;;;5082284;27;46499;-68
2023/07/09 11:24:53;;;;;;;11.80;3.30;;;33.00;1.00;;;;;;5081808;27;46636;-71
2023/07/09 11:27:24;;;;;;;7.50;3.00;;;33.10;1.00;;;;;;5080949;27;46401;-68
2023/07/09 11:30:02;;;;;;;6.37;2.87;;;32.90;1.00;;;;;;5083588;27;46898;-70
2023/07/09 11:32:29;;;;;;;9.60;3.40;;;32.80;1.00;;;;;;5078900;27;47230;-70
2023/07/09 11:35:05;;;;;;;7.57;2.90;;;32.80;1.00;;;;;;5084067;27;46452;-70
2023/07/09 11:37:31;;;;;;;7.57;3.27;;;32.70;1.00;;;;;;5082257;27;46702;-68
2023/07/09 11:40:10;;;;;;;5.50;2.63;;;32.70;1.00;;;;;;5085644;27;46518;-69
2023/07/09 11:42:52;;;;;;;6.30;3.20;;;32.90;1.00;;;;;;5084011;27;49125;-69
2023/07/09 11:45:25;;;;;;;6.53;3.17;;;32.70;1.00;;;;;;5086139;27;46436;-70
2023/07/09 11:48:29;;;;;;;6.13;2.77;;;32.70;1.00;;;;;;5080235;27;46442;-70
2023/07/09 11:50:56;;;;;;;10.17;3.20;;;32.60;1.00;;;;;;5083188;27;46487;-70
2023/07/09 11:53:47;;;;;;;6.70;3.10;;;32.70;1.00;;;;;;5079156;27;46934;-68
2023/07/09 11:56:13;;;;;;;11.33;3.37;;;32.90;1.00;;;;;;5079585;27;46496;-68
2023/07/09 11:58:52;;;;;;;5.80;3.00;;;32.90;1.00;;;;;;5083935;27;46247;-70
2023/07/09 12:01:25;;;;;;;8.10;3.00;;;32.90;1.00;;;;;;5082696;27;46220;-69
2023/07/09 12:03:51;;;;;;;9.83;2.97;;;32.90;1.00;;;;;;5088017;27;46737;-69
2023/07/09 12:06:27;;;;;;;7.07;3.00;;;32.90;1.00;;;;;;5085230;27;46680;-69
2023/07/09 12:08:54;;;;;;;6.67;2.90;;;32.80;1.00;;;;;;5080471;27;46605;-70
2023/07/09 12:11:30;;;;;;;6.60;2.70;;;32.80;1.00;;;;;;5083300;27;46438;-69
2023/07/09 12:14:03;;;;;;;7.20;2.77;;;32.70;1.00;;;;;;5082954;27;46414;-70
2023/07/09 12:16:34;;;;;;;6.40;3.43;;;32.90;1.00;;;;;;5083942;27;46709;-70
2023/07/09 12:19:00;;;;;;;9.10;3.20;;;32.90;1.00;;;;;;5084383;27;46419;-68
2023/07/09 12:21:26;;;;;;;13.00;3.30;;;32.90;1.00;;;;;;5081061;27;46351;-69
2023/07/09 12:23:53;;;;;;;10.27;3.00;;;33.00;1.00;;;;;;5081527;27;46371;-69
2023/07/09 12:26:20;;;;;;;5.63;3.30;;;32.90;1.00;;;;;;5076718;27;46919;-69
2023/07/09 12:28:54;;;;;;;9.53;3.50;;;32.70;1.00;;;;;;5078328;27;46546;-69
2023/07/09 12:31:26;;;;;;;7.47;3.03;;;32.70;1.00;;;;;;5077941;27;46451;-69
2023/07/09 12:33:54;;;;;;;7.83;3.07;;;32.70;1.00;;;;;;5081213;27;46286;-69
2023/07/09 12:36:20;;;;;;;5.63;2.37;;;32.70;1.00;;;;;;5081732;27;46505;-68
2023/07/09 12:38:51;;;;;;;8.97;2.83;;;32.90;1.00;;;;;;5084389;27;46774;-67
2023/07/09 12:41:22;;;;;;;5.67;2.70;;;32.90;1.00;;;;;;5082489;27;46445;-69
2023/07/09 12:43:49;;;;;;;9.90;2.70;;;33.10;1.00;;;;;;5084358;27;47242;-69
2023/07/09 12:46:15;;;;;;;8.03;3.40;;;33.20;1.00;;;;;;5086400;27;46484;-70
2023/07/09 12:48:40;;;;;;;5.40;2.83;;;33.30;1.00;;;;;;5082884;27;46636;-70
2023/07/09 12:51:08;;;;;;;6.13;2.73;;;33.10;1.00;;;;;;5083134;27;46565;-70
2023/07/09 12:53:36;;;;;;;9.60;3.30;;;33.10;1.00;;;;;;5079407;27;47486;-69
2023/07/09 12:56:02;;;;;;;6.30;2.93;;;33.30;1.00;;;;;;5079297;27;46489;-69
2023/07/09 12:58:35;;;;;;;5.77;3.33;;;33.30;1.00;;;;;;5081949;27;46448;-68